• Join FlightAware (Why Join?)
  • Login
  • US Flag 
Rudolph Flight #1: Arrived! 
12:20AM EST


 

Airport Tracker/Info


-or-


 

Live Flight TrackerFlight Track Log ✈ N173AA ✈ 16-May-2013 ✈ KFLL - KVQQ

Flight Track Log - Related Links

Times and Time Zones

All times are in EDT time to prevent confusion due to time zone crossing. See the N173AA flight status page for this flight to view local times or setup timezone preferences in your user account.

Time Position Orientation Groundspeed Altitude Reporting Facility
EDT Latitude Longitude Course Direction KTS MPH feet Rate Location/Type
02:59PM 26.0786 -80.0697 85° East 199 229 2,900  Level Miami Center
03:00PM 26.1233 -80.0292 39° Northeast 217 250 3,900 960 Climbing Miami Center
03:01PM 26.1728 -80.0536 336° Northwest 224 258 4,900 600 Climbing Miami Center
03:02PM 26.2100 -80.0756 332° Northwest 260 299 4,900 120 Level Miami Center
03:03PM 26.2631 -80.1281 318° Northwest 266 306 5,200 960 Climbing Miami Center
03:04PM 26.3183 -80.1781 321° Northwest 261 300 6,900 1,920 Climbing Miami Center
03:05PM 26.3778 -80.2331 320° Northwest 251 289 9,100 1,980 Climbing Miami Center
03:06PM 26.4228 -80.2739 321° Northwest 244 281 10,900 1,980 Climbing Miami Center
03:07PM 26.4800 -80.3267 320° Northwest 244 281 13,100 1,980 Climbing Miami Center
03:08PM 26.5228 -80.3650 321° Northwest 232 267 14,900 1,440 Climbing Miami Center
03:09PM 26.5781 -80.4178 320° Northwest 232 267 16,000 840 Climbing Miami Center
03:10PM 26.6247 -80.4750 312° West 255 293 16,600 900 Climbing Miami Center
03:11PM 26.6750 -80.5508 307° West 273 314 17,800 1,320 Climbing Miami Center
03:12PM 26.7108 -80.6122 303° West 272 313 19,300 1,440 Climbing Miami Center
03:13PM 26.7256 -80.6942 281° West 250 288 20,700 1,380 Climbing Miami Center
03:14PM 26.7403 -80.7714 282° West 250 288 22,100 1,080 Climbing Miami Center
03:15PM 26.7528 -80.8486 280° West 250 288 22,900 780 Climbing Miami Center
03:16PM 26.7650 -80.9306 280° West 263 303 23,700 540 Climbing Miami Center
03:17PM 26.7769 -81.0217 278° West 276 318 24,000 120 Climbing Miami Center
03:18PM 26.7892 -81.1058 279° West 292 336 24,000  Level Miami Center
03:19PM 26.8031 -81.1994 279° West 304 350 24,000  Level Miami Center
03:20PM 26.8192 -81.2953 281° West 316 364 24,000  Level Miami Center
03:21PM 26.8858 -81.3631 318° Northwest 295 339 24,000  Level Miami Center
03:22PM 26.9636 -81.4103 332° Northwest 313 360 24,000  Level Miami Center
03:23PM 27.0519 -81.4628 332° Northwest 323 372 24,000 480 Level Miami Center
03:24PM 27.1339 -81.5081 334° Northwest 323 372 25,000 960 Climbing Miami Center
03:25PM 27.2097 -81.5508 333° Northwest 318 366 26,000 480 Climbing Miami Center
03:26PM 27.2814 -81.5933 332° Northwest 318 366 26,000  Level Miami Center
03:27PM 27.3656 -81.6411 333° Northwest 328 377 26,000  Level Miami Center
03:28PM 27.4597 -81.6942 333° Northwest 343 395 26,000  Level Miami Center
03:29PM 27.5414 -81.7444 331° Northwest 343 395 26,000  Level Miami Center
03:30PM 27.6294 -81.7928 334° Northwest 338 389 26,000  Level Miami Center
03:32PM 27.7831 -81.8864 332° Northwest 339 390 26,000  Level Jacksonville Center
03:33PM 27.8689 -81.9394 331° Northwest 344 396 26,000 -60 Level Jacksonville Center
03:34PM 27.9528 -81.9881 333° Northwest 344 396 25,900  Descending Jacksonville Center
03:35PM 28.0344 -82.0392 331° Northwest 338 389 26,000  Climbing Jacksonville Center
03:36PM 28.1142 -82.0878 332° Northwest 333 383 26,000  Level Jacksonville Center
03:37PM 28.1917 -82.1414 329° Northwest 328 377 26,000 -60 Level Jacksonville Center
03:38PM 28.2711 -82.1903 332° Northwest 323 372 25,900  Descending Jacksonville Center
03:39PM 28.3672 -82.1942 358° North 318 366 26,000  Climbing Jacksonville Center
03:40PM 28.4589 -82.1936 360° North 323 372 26,000  Level Jacksonville Center
03:41PM 28.5528 -82.1978 358° North 329 379 26,000  Level Jacksonville Center
03:42PM 28.6469 -82.2019 358° North 329 379 26,000 -120 Level Jacksonville Center
03:43PM 28.7428 -82.2058 358° North 329 379 25,800 -480 Descending Jacksonville Center
03:44PM 28.8389 -82.2122 357° North 334 384 25,100 -660 Descending Jacksonville Center
03:45PM 28.9392 -82.2211 356° North 346 398 24,500 -780 Descending Jacksonville Center
03:46PM 29.0394 -82.2253 358° North 357 411 23,600 -960 Descending Jacksonville Center
03:47PM 29.1417 -82.2317 357° North 363 418 22,600 -1,260 Descending Jacksonville Center
03:48PM 29.2356 -82.2406 355° North 357 411 21,100 -1,920 Descending Jacksonville Center
03:48PM 29.3172 -82.2494 355° North 329 379 19,400 -1,920 Descending Jacksonville Center
03:49PM 29.3317 -82.2469 North 346 398 19,200 -1,500 Descending Jacksonville Center
03:49PM 29.3986 -82.2536 355° North 331 381 18,000 -1,440 Descending Jacksonville Center
03:50PM 29.4236 -82.2536 360° North 341 392 17,800 -1,260 Descending Jacksonville Center
03:51PM 29.5031 -82.2625 354° North 329 379 16,600 -1,440 Descending Jacksonville Center
03:51PM 29.5156 -82.2600 10° North 330 380 16,400 -840 Descending Jacksonville Center
03:52PM 29.5886 -82.2669 355° North 307 353 15,800 -780 Descending Jacksonville Center
03:53PM 29.6697 -82.2258 24° Northeast 315 362 15,100 -720 Descending Jacksonville Center
03:54PM 29.7447 -82.1797 28° Northeast 308 354 14,400 -660 Descending Jacksonville Center
03:55PM 29.8236 -82.1289 29° Northeast 308 354 13,800 -780 Descending Jacksonville Center
03:56PM 29.9006 -82.0781 30° Northeast 316 364 12,900 -1,020 Descending Jacksonville Center
03:57PM 29.9881 -82.0219 29° Northeast 308 354 11,700 -1,380 Descending Jacksonville Center
03:58PM 30.0483 -81.9831 29° Northeast 283 326 10,200 -2,100 Descending Jacksonville Center
03:59PM 30.1231 -81.9511 20° North 275 316 7,700 -2,580 Descending Jacksonville Center
04:00PM 30.2003 -81.9239 17° North 257 296 4,700 -2,400 Descending Jacksonville Center
04:01PM 30.2608 -81.9208 North 207 238 2,700 -1,680 Descending Jacksonville Center
04:02PM 30.2731 -81.8800 71° East 117 135 1,300 -1,380 Descending Jacksonville Center
04:04PM 30.2188 -81.8772 177° South  Level Estimated
04:11PM 30.2188 -81.8772 128° Southeast  Level Estimated